Time;durP1;ratioP1;P1;durP2;ratioP2;P2;SDS_P1;SDS_P2;PMS_P1;PMS_P2;Temp;Humidity;BMP_temperature;BMP_pressure;BME280_temperature;BME280_humidity;BME280_pressure;Samples;Min_cycle;Max_cycle;Signal;HPM_P1;HPM_P2
2021/01/19 00:00:07;;;;;;;20.23;13.30;;;;;;;1.00;38.09;100033.77;1804599;79;21458;-75
2021/01/19 00:02:36;;;;;;;20.68;13.15;;;;;;;1.01;38.07;100037.24;1798019;79;21171;-74
2021/01/19 00:05:05;;;;;;;20.23;13.00;;;;;;;1.00;38.03;100040.30;1790725;79;21170;-74
2021/01/19 00:07:32;;;;;;;20.70;13.88;;;;;;;1.01;38.02;100034.14;1789874;79;21127;-73
2021/01/19 00:09:59;;;;;;;19.32;13.05;;;;;;;1.01;37.99;100035.94;1786142;79;21183;-71
2021/01/19 00:12:27;;;;;;;19.05;12.82;;;;;;;1.00;37.99;100040.78;1794859;79;23447;-73
2021/01/19 00:14:54;;;;;;;21.25;13.32;;;;;;;1.00;37.96;100036.38;1799273;79;21540;-72
2021/01/19 00:20:05;;;;;;;21.50;13.13;;;;;;;1.04;37.96;100025.25;1858296;75;23058;-73
2021/01/19 00:22:32;;;;;;;18.92;12.80;;;;;;;1.02;37.91;100032.36;1815935;77;21120;-72
2021/01/19 00:25:01;;;;;;;21.35;13.58;;;;;;;0.98;37.88;100026.04;1832840;76;21930;-73
2021/01/19 00:27:28;;;;;;;24.57;14.18;;;;;;;1.00;37.87;100027.22;1829515;76;21219;-73
2021/01/19 00:29:55;;;;;;;21.52;14.40;;;;;;;1.00;37.85;100029.02;1826617;77;21125;-72
2021/01/19 00:32:22;;;;;;;21.70;13.60;;;;;;;1.00;37.84;100025.91;1835209;77;21585;-71
2021/01/19 00:34:49;;;;;;;22.55;15.18;;;;;;;1.00;37.83;100025.08;1836297;77;21146;-73
2021/01/19 00:37:17;;;;;;;24.47;15.05;;;;;;;1.00;37.80;100025.08;1836885;77;23593;-72
2021/01/19 00:39:44;;;;;;;24.80;14.38;;;;;;;0.98;37.79;100028.66;1850452;77;21064;-73
2021/01/19 00:42:11;;;;;;;22.10;13.80;;;;;;;0.95;37.82;100031.45;1837251;77;21129;-72
2021/01/19 00:44:39;;;;;;;23.95;14.75;;;;;;;0.94;37.83;100031.55;1835155;77;21200;-73
2021/01/19 00:47:06;;;;;;;21.62;14.00;;;;;;;0.95;37.81;100025.39;1836717;77;21089;-72
2021/01/19 00:49:34;;;;;;;23.50;14.70;;;;;;;0.93;37.84;100020.26;1834359;77;21365;-73
2021/01/19 00:52:02;;;;;;;22.60;13.98;;;;;;;0.96;37.78;100012.19;1832640;77;21156;-72
2021/01/19 00:54:29;;;;;;;21.17;13.65;;;;;;;0.95;37.80;100017.07;1845928;77;21604;-72
2021/01/19 00:56:57;;;;;;;21.02;12.82;;;;;;;0.97;37.76;100019.11;1839840;77;21175;-72
2021/01/19 00:59:24;;;;;;;21.73;13.88;;;;;;;0.95;37.75;100013.14;1824299;77;21152;-72
2021/01/19 01:01:52;;;;;;;20.08;13.72;;;;;;;0.97;37.73;100016.98;1831669;77;22241;-72
2021/01/19 01:04:19;;;;;;;25.68;15.08;;;;;;;0.97;37.72;100013.88;1842992;77;21132;-73
2021/01/19 01:06:53;;;;;;;25.12;13.72;;;;;;;0.97;37.71;100000.80;1834039;77;21152;-73
2021/01/19 01:09:20;;;;;;;;;;;;;;;0.98;37.70;100000.33;1847666;77;21093;-72
2021/01/19 01:11:47;;;;;;;22.22;13.55;;;;;;;0.98;37.65;100008.17;1835030;77;20275;-73
2021/01/19 01:14:14;;;;;;;24.80;15.13;;;;;;;0.89;37.76;100001.78;1841142;77;21369;-74
2021/01/19 01:16:43;;;;;;;21.65;14.10;;;;;;;0.90;37.77;100005.22;1822815;77;21136;-74
2021/01/19 01:19:12;;;;;;;21.85;14.80;;;;;;;0.91;37.75;100008.23;1829326;77;21117;-74
2021/01/19 01:21:39;;;;;;;21.20;14.30;;;;;;;0.92;37.73;100001.56;1823697;77;21172;-72
2021/01/19 01:24:10;;;;;;;22.25;14.38;;;;;;;0.93;37.71;100003.73;1849429;77;21605;-72
2021/01/19 01:26:41;;;;;;;24.27;15.45;;;;;;;0.94;37.66;100013.23;1851202;77;21194;-74
2021/01/19 01:29:08;;;;;;;24.25;14.68;;;;;;;0.94;37.69;100001.47;1836784;77;21152;-72
2021/01/19 01:31:35;;;;;;;22.10;14.98;;;;;;;0.93;37.65;100000.64;1833418;77;21601;-72
2021/01/19 01:34:04;;;;;;;22.60;14.60;;;;;;;0.95;37.63;100000.06;1834922;75;21156;-73
2021/01/19 01:36:40;;;;;;;23.30;14.65;;;;;;;0.94;37.62;99998.38;1828717;76;21136;-73
2021/01/19 01:39:07;;;;;;;22.48;13.60;;;;;;;0.91;37.63;100006.44;1839650;77;21379;-74
2021/01/19 01:41:35;;;;;;;22.13;14.87;;;;;;;0.90;37.64;100004.75;1823879;76;21164;-72
2021/01/19 01:44:03;;;;;;;22.82;13.58;;;;;;;0.88;37.67;100001.39;1823616;76;21577;-72
2021/01/19 01:46:35;;;;;;;20.92;13.40;;;;;;;0.87;37.69;99998.88;1830350;76;21113;-72
2021/01/19 01:49:04;;;;;;;20.10;14.67;;;;;;;0.90;37.52;100002.61;1840818;76;21319;-73
2021/01/19 01:51:33;;;;;;;23.18;15.20;;;;;;;0.90;37.52;100002.61;1834762;77;21653;-73
2021/01/19 01:54:01;;;;;;;22.22;14.58;;;;;;;0.92;37.56;100000.73;1828550;77;21172;-73
2021/01/19 01:56:28;;;;;;;23.73;14.07;;;;;;;0.90;37.59;99998.21;1829531;77;21132;-73
2021/01/19 01:58:56;;;;;;;19.15;13.80;;;;;;;0.92;37.55;99998.94;1846441;77;21144;-72
2021/01/19 02:01:24;;;;;;;22.48;13.28;;;;;;;0.92;37.54;100002.04;1824062;77;21101;-72
2021/01/19 02:03:53;;;;;;;20.77;13.83;;;;;;;0.92;37.52;100004.66;1840975;77;21366;-72
2021/01/19 02:06:21;;;;;;;20.68;13.70;;;;;;;0.93;37.51;100007.66;1826750;76;21164;-72
2021/01/19 02:09:15;;;;;;;19.55;13.38;;;;;;;0.91;37.50;100005.13;1836801;77;21192;-72
2021/01/19 02:11:55;;;;;;;21.02;13.38;;;;;;;0.93;37.48;100007.66;1823853;77;21101;-73
2021/01/19 02:14:36;;;;;;;25.10;14.38;;;;;;;0.90;37.48;100006.05;1783995;78;21142;-73
2021/01/19 02:17:24;;;;;;;22.67;14.20;;;;;;;0.86;37.54;100007.67;1847798;75;21595;-73
2021/01/19 02:20:20;;;;;;;20.02;12.45;;;;;;;0.85;37.56;100008.16;1856488;75;21151;-73
2021/01/19 02:23:39;;;;;;;24.57;14.65;;;;;;;0.85;37.55;100005.98;1823937;77;21154;-72
2021/01/19 02:26:41;;;;;;;20.57;13.80;;;;;;;0.80;37.61;100006.30;1850321;75;21189;-72
2021/01/19 02:29:51;;;;;;;21.60;13.43;;;;;;;0.79;37.63;100008.52;1848133;77;26507;-72
2021/01/19 02:32:51;;;;;;;22.35;13.78;;;;;;;0.77;37.64;100004.72;1815770;78;21469;-72
2021/01/19 02:35:27;;;;;;;23.83;14.60;;;;;;;0.75;37.63;99996.59;1802369;78;21166;-72
2021/01/19 02:38:33;;;;;;;23.35;13.75;;;;;;;0.76;37.64;100003.03;1809370;77;22313;-71
2021/01/19 02:41:03;;;;;;;20.62;13.00;;;;;;;0.73;37.62;99999.30;1803629;78;21477;-72
2021/01/19 02:43:31;;;;;;;20.20;13.10;;;;;;;0.69;37.67;99996.52;1801812;78;21163;-73
2021/01/19 02:45:58;;;;;;;21.07;13.15;;;;;;;0.70;37.68;99997.38;1819367;77;21344;-72
2021/01/19 02:48:26;;;;;;;19.07;12.45;;;;;;;0.72;37.63;99992.87;1809312;77;21194;-73
2021/01/19 02:50:53;;;;;;;19.37;13.58;;;;;;;0.74;37.61;100005.39;1838629;77;21593;-73
2021/01/19 02:53:21;;;;;;;19.07;12.95;;;;;;;0.74;37.58;100001.46;1855159;77;21137;-73
2021/01/19 02:55:50;;;;;;;20.95;12.73;;;;;;;0.73;37.60;100002.39;1848745;77;21129;-74
2021/01/19 02:58:48;;;;;;;21.65;13.15;;;;;;;0.71;37.61;99998.55;1834495;77;21386;-74
2021/01/19 03:01:22;;;;;;;20.12;12.65;;;;;;;0.74;37.57;100002.77;1831130;77;21191;-73
2021/01/19 03:03:49;;;;;;;19.57;12.28;;;;;;;0.73;37.56;100003.69;1849594;77;26653;-73
2021/01/19 03:06:20;;;;;;;17.40;12.33;;;;;;;0.74;37.51;100006.70;1789445;78;21225;-73
2021/01/19 03:08:48;;;;;;;19.85;12.18;;;;;;;0.74;37.52;100006.70;1823787;77;21111;-73
2021/01/19 03:11:17;;;;;;;19.62;12.40;;;;;;;0.75;37.46;100009.66;1796227;79;22602;-73
2021/01/19 03:13:48;;;;;;;17.25;11.53;;;;;;;0.76;37.47;100010.88;1801056;77;21165;-73
2021/01/19 03:16:18;;;;;;;19.52;11.97;;;;;;;0.76;37.43;100006.13;1808048;77;21165;-73
2021/01/19 03:18:47;;;;;;;18.15;11.38;;;;;;;0.77;37.40;100008.65;1809994;77;21191;-72
2021/01/19 03:21:15;;;;;;;19.15;12.88;;;;;;;0.74;37.41;100004.91;1794182;79;21152;-72
2021/01/19 03:24:43;;;;;;;19.77;11.73;;;;;;;0.71;37.43;100008.19;1793356;79;21255;-72
2021/01/19 03:27:11;;;;;;;18.12;11.40;;;;;;;0.69;37.44;100006.14;1790042;79;21150;-71
2021/01/19 03:29:39;;;;;;;18.95;12.40;;;;;;;0.65;37.44;100004.66;1788203;79;21119;-72
2021/01/19 03:32:06;;;;;;;16.85;10.45;;;;;;;0.67;37.43;100006.23;1804378;79;21192;-72
2021/01/19 03:34:33;;;;;;;16.07;11.03;;;;;;;0.67;37.42;100005.41;1824410;78;21116;-72
2021/01/19 03:37:01;;;;;;;17.27;11.90;;;;;;;0.66;37.44;100003.74;1798002;78;22803;-72
2021/01/19 03:39:29;;;;;;;17.50;11.18;;;;;;;0.64;37.43;100000.36;1802371;79;21621;-73
2021/01/19 03:41:58;;;;;;;19.30;11.20;;;;;;;0.62;37.44;100008.77;1807939;78;21138;-72
2021/01/19 03:44:33;;;;;;;20.02;11.15;;;;;;;0.61;37.43;100013.17;1807628;77;21117;-73
2021/01/19 03:47:08;;;;;;;15.63;10.28;;;;;;;0.65;37.38;99998.12;1808164;78;21111;-73
2021/01/19 03:49:36;;;;;;;16.15;10.25;;;;;;;0.65;37.38;100000.27;1816791;77;21204;-72
2021/01/19 03:52:04;;;;;;;15.18;10.35;;;;;;;0.66;37.32;99997.20;1813797;77;21180;-73
2021/01/19 03:54:31;;;;;;;17.40;11.35;;;;;;;0.66;37.32;99998.52;1810744;77;21174;-73
2021/01/19 03:56:59;;;;;;;18.70;12.28;;;;;;;0.67;37.25;99999.69;1801682;78;21630;-72
2021/01/19 03:59:27;;;;;;;17.90;11.40;;;;;;;0.68;37.24;100007.09;1812026;78;21594;-72
2021/01/19 04:01:56;;;;;;;16.60;10.80;;;;;;;0.67;37.21;100001.00;1799961;78;22158;-73
2021/01/19 04:04:23;;;;;;;17.48;11.00;;;;;;;0.68;37.22;100006.62;1800587;77;21581;-72
2021/01/19 04:06:50;;;;;;;17.23;10.70;;;;;;;0.67;37.20;100008.84;1821224;78;21543;-71
2021/01/19 04:09:18;;;;;;;19.27;11.15;;;;;;;0.68;37.17;100002.70;1804701;77;21674;-72
2021/01/19 04:11:45;;;;;;;16.67;10.78;;;;;;;0.67;37.17;100004.09;1819026;78;21136;-72
2021/01/19 04:14:12;;;;;;;16.35;10.68;;;;;;;0.67;37.17;100004.09;1818613;77;21294;-71
2021/01/19 04:16:40;;;;;;;17.17;11.20;;;;;;;0.65;37.16;100002.87;1826055;78;21564;-72
2021/01/19 04:19:07;;;;;;;15.83;10.88;;;;;;;0.62;37.18;100002.23;1829386;77;21631;-73
2021/01/19 04:21:35;;;;;;;15.75;9.78;;;;;;;0.61;37.18;100003.19;1831900;77;21170;-72
2021/01/19 04:24:02;;;;;;;14.10;9.85;;;;;;;0.63;37.17;99997.39;1840026;77;21563;-71
2021/01/19 04:26:30;;;;;;;16.23;10.50;;;;;;;0.60;37.17;99995.82;1843385;77;22033;-72
2021/01/19 04:28:57;;;;;;;17.05;10.93;;;;;;;0.64;37.10;100000.36;1830500;77;21190;-71
2021/01/19 04:31:25;;;;;;;16.32;10.13;;;;;;;0.63;37.12;100003.92;1823682;77;21151;-72
2021/01/19 04:33:52;;;;;;;15.20;10.20;;;;;;;0.66;37.06;100005.05;1810235;78;21129;-72
2021/01/19 04:36:19;;;;;;;17.87;10.55;;;;;;;0.63;37.08;99994.77;1850660;75;21150;-72
2021/01/19 04:38:48;;;;;;;15.75;10.38;;;;;;;0.66;37.04;99998.52;1805623;77;22859;-72
2021/01/19 04:41:17;;;;;;;17.48;10.40;;;;;;;0.62;37.04;100003.54;1843027;77;21187;-73
2021/01/19 04:43:47;;;;;;;16.05;10.43;;;;;;;0.64;36.98;100006.89;1763992;77;21064;-73
2021/01/19 04:46:14;;;;;;;18.12;11.20;;;;;;;0.63;37.00;100007.37;1855406;77;21149;-73
2021/01/19 04:48:42;;;;;;;16.82;10.63;;;;;;;0.63;36.96;100005.23;1829874;77;21084;-73
2021/01/19 04:51:17;;;;;;;14.68;9.55;;;;;;;0.63;36.95;100005.23;1853894;77;21394;-72
2021/01/19 04:54:04;;;;;;;15.80;9.63;;;;;;;0.61;36.96;100005.32;1812394;78;21575;-71
2021/01/19 04:56:31;;;;;;;16.20;10.28;;;;;;;0.57;36.99;100002.54;1791253;79;21187;-72
2021/01/19 04:58:58;;;;;;;15.05;10.05;;;;;;;0.54;37.01;100006.64;1823337;78;21105;-71
2021/01/19 05:01:46;;;;;;;16.37;10.55;;;;;;;0.58;36.96;100014.69;1841840;77;21126;-71
2021/01/19 05:04:47;;;;;;;14.25;9.78;;;;;;;0.55;36.99;100017.48;1827909;77;21201;-73
2021/01/19 05:07:33;;;;;;;14.10;10.13;;;;;;;0.57;36.93;100020.36;1825872;77;21964;-71
2021/01/19 05:10:29;;;;;;;15.83;10.25;;;;;;;0.54;36.95;100024.94;1853971;77;21171;-72
2021/01/19 05:13:01;;;;;;;15.00;10.25;;;;;;;0.51;36.94;100023.84;1824146;78;21163;-72
2021/01/19 05:15:29;;;;;;;17.17;10.63;;;;;;;0.47;36.99;100027.59;1824590;78;21130;-73
2021/01/19 05:17:56;;;;;;;16.93;10.85;;;;;;;0.43;37.03;100034.78;1856913;77;22116;-73
2021/01/19 05:20:24;;;;;;;15.15;10.13;;;;;;;0.48;36.96;100040.55;1850195;77;21140;-74
2021/01/19 05:22:52;;;;;;;15.23;9.90;;;;;;;0.45;36.97;100040.75;1796819;78;21136;-73
2021/01/19 05:26:42;;;;;;;16.83;11.13;;;;;;;0.50;36.95;100044.37;1793979;79;22907;-74
2021/01/19 05:29:10;;;;;;;14.75;10.40;;;;;;;0.46;36.93;100045.03;1773857;78;21567;-73
2021/01/19 05:31:37;;;;;;;16.40;10.30;;;;;;;0.46;36.88;100048.13;1752939;80;21662;-72
2021/01/19 05:34:09;;;;;;;13.93;8.80;;;;;;;0.47;36.88;100051.13;1760545;80;21137;-73
2021/01/19 05:36:46;;;;;;;15.93;11.70;;;;;;;0.45;36.86;100048.59;1771547;80;21131;-73
2021/01/19 05:39:19;;;;;;;14.38;10.03;;;;;;;0.43;36.89;100046.55;1751702;80;21127;-71
2021/01/19 05:41:52;;;;;;;15.35;10.32;;;;;;;0.42;36.89;100050.56;1756480;80;26107;-73
2021/01/19 05:44:29;;;;;;;14.63;9.80;;;;;;;0.46;36.84;100050.26;1762957;80;21412;-72
2021/01/19 05:47:02;;;;;;;14.98;9.25;;;;;;;0.44;36.83;100053.91;1761613;80;21182;-71
2021/01/19 05:49:40;;;;;;;17.35;11.05;;;;;;;0.43;36.82;100051.78;1770505;80;21178;-72
2021/01/19 05:52:13;;;;;;;15.90;10.28;;;;;;;0.39;36.85;100051.13;1758200;80;21171;-73
2021/01/19 05:54:48;;;;;;;16.70;9.93;;;;;;;0.36;36.85;100048.69;1758695;80;21139;-72
2021/01/19 05:57:23;;;;;;;16.10;10.43;;;;;;;0.40;36.80;100046.73;1765579;80;21380;-73
2021/01/19 05:59:53;;;;;;;13.90;9.70;;;;;;;0.38;36.81;100047.29;1761907;78;21148;-73
2021/01/19 06:02:23;;;;;;;17.85;11.83;;;;;;;0.40;36.79;100045.42;1764062;80;21185;-72
2021/01/19 06:04:53;;;;;;;16.07;10.05;;;;;;;0.41;36.76;100048.42;1766829;80;21203;-71
2021/01/19 06:07:25;;;;;;;17.55;10.88;;;;;;;0.41;36.73;100047.11;1723263;83;21183;-72
2021/01/19 06:09:53;;;;;;;15.05;9.88;;;;;;;0.36;36.77;100043.46;1722987;81;21150;-72
2021/01/19 06:12:21;;;;;;;17.37;11.63;;;;;;;0.34;36.78;100045.80;1730233;81;21182;-73
2021/01/19 06:14:52;;;;;;;16.62;10.30;;;;;;;0.36;36.77;100040.02;1717686;83;21171;-73
2021/01/19 06:17:21;;;;;;;15.88;10.48;;;;;;;0.34;36.79;100044.50;1715720;83;21194;-71
2021/01/19 06:19:52;;;;;;;16.23;10.55;;;;;;;0.39;36.72;100042.45;1708007;81;21430;-72
2021/01/19 06:22:23;;;;;;;16.52;10.43;;;;;;;0.38;36.72;100040.76;1714041;83;21404;-71
2021/01/19 06:24:56;;;;;;;15.78;10.75;;;;;;;0.39;36.68;100042.45;1726779;81;21141;-72
2021/01/19 06:27:28;;;;;;;15.55;10.32;;;;;;;0.42;36.67;100044.86;1761153;80;21627;-71
2021/01/19 06:30:09;;;;;;;15.15;9.53;;;;;;;0.41;36.66;100047.55;1749349;80;21166;-73
2021/01/19 06:32:49;;;;;;;14.98;9.93;;;;;;;0.37;36.70;100050.86;1747242;80;21437;-72
2021/01/19 06:35:21;;;;;;;17.37;10.40;;;;;;;0.36;36.70;100055.70;1744718;80;23814;-71
2021/01/19 06:37:53;;;;;;;15.80;10.30;;;;;;;0.41;36.66;100051.48;1711743;82;21180;-71
2021/01/19 06:40:22;;;;;;;16.07;10.30;;;;;;;0.41;36.66;100055.40;1744816;80;21564;-71
2021/01/19 06:43:02;;;;;;;16.20;10.40;;;;;;;0.40;36.62;100061.10;1746660;80;21181;-73
2021/01/19 06:45:32;;;;;;;14.58;9.95;;;;;;;0.40;36.64;100063.72;1746629;80;21195;-73
2021/01/19 06:48:02;;;;;;;15.18;9.73;;;;;;;0.40;36.64;100070.25;1747516;80;21209;-72
2021/01/19 06:50:36;;;;;;;14.83;10.43;;;;;;;0.40;36.67;100074.17;1761579;80;21579;-73
2021/01/19 06:53:23;;;;;;;14.30;9.48;;;;;;;0.39;36.67;100070.73;1704321;84;21116;-72
2021/01/19 06:56:12;;;;;;;14.03;9.40;;;;;;;0.46;36.61;100071.65;1705729;82;21124;-72
2021/01/19 06:58:56;;;;;;;15.78;10.20;;;;;;;0.45;36.61;100066.89;1755298;80;21131;-72
2021/01/19 07:01:28;;;;;;;16.40;10.38;;;;;;;0.46;36.59;100073.78;1750024;80;21377;-73
2021/01/19 07:04:23;;;;;;;14.53;10.05;;;;;;;0.47;36.61;100075.48;1745728;80;21155;-73
2021/01/19 07:07:33;;;;;;;14.15;9.83;;;;;;;0.46;36.62;100078.19;1743275;80;21202;-73
2021/01/19 07:10:12;;;;;;;15.25;9.35;;;;;;;0.47;36.61;100081.19;1725923;82;21535;-74
2021/01/19 07:13:06;;;;;;;15.00;9.45;;;;;;;0.49;36.59;100078.00;1741983;82;21659;-73
2021/01/19 07:16:07;;;;;;;13.05;9.05;;;;;;;0.47;36.62;100078.57;1750865;80;21368;-74
2021/01/19 07:19:10;;;;;;;15.20;9.33;;;;;;;0.52;36.60;100077.80;1690338;83;21168;-73
2021/01/19 07:22:04;;;;;;;14.35;9.10;;;;;;;0.53;36.59;100079.48;1686039;84;21176;-73
2021/01/19 07:24:48;;;;;;;16.30;9.95;;;;;;;0.52;36.60;100084.33;1743948;80;21115;-72
2021/01/19 07:27:20;;;;;;;13.78;9.48;;;;;;;0.52;36.62;100090.87;1703850;80;21139;-72
2021/01/19 07:29:48;;;;;;;14.58;9.20;;;;;;;0.52;36.65;100087.80;1728401;80;22329;-73
2021/01/19 07:32:21;;;;;;;13.53;9.18;;;;;;;0.55;36.58;100081.06;1750632;80;21174;-73
2021/01/19 07:34:49;;;;;;;16.75;10.00;;;;;;;0.59;36.55;100089.55;1751081;80;21190;-73
2021/01/19 07:37:31;;;;;;;17.17;10.50;;;;;;;0.55;36.53;100081.54;1756420;80;21147;-73
2021/01/19 07:40:19;;;;;;;14.67;9.70;;;;;;;0.64;36.58;100090.12;1814424;76;22857;-73
2021/01/19 07:42:47;;;;;;;14.65;9.45;;;;;;;0.62;36.58;100087.21;1796942;79;21111;-71
2021/01/19 07:45:15;;;;;;;16.27;9.75;;;;;;;0.66;36.50;100088.25;1765238;78;21418;-71
2021/01/19 07:47:44;;;;;;;15.50;9.58;;;;;;;0.67;36.51;100099.06;1805844;78;21207;-71
2021/01/19 07:50:17;;;;;;;17.00;10.45;;;;;;;0.73;36.47;100103.07;1817669;78;21599;-72
2021/01/19 07:52:47;;;;;;;14.68;9.88;;;;;;;0.74;36.49;100096.44;1804895;78;21761;-71
2021/01/19 07:55:21;;;;;;;17.42;10.75;;;;;;;0.78;36.42;100103.62;1811793;78;21147;-71
2021/01/19 07:57:51;;;;;;;14.80;9.88;;;;;;;0.82;36.40;100103.80;1813768;77;21321;-71
2021/01/19 08:00:25;;;;;;;15.50;9.85;;;;;;;0.84;36.37;100100.63;1820931;78;21149;-72
2021/01/19 08:03:05;;;;;;;13.95;9.55;;;;;;;0.86;36.33;100101.84;1790074;79;21173;-68
2021/01/19 08:05:34;;;;;;;14.30;9.53;;;;;;;0.87;36.33;100105.67;1793321;78;21147;-68
2021/01/19 08:08:12;;;;;;;13.05;9.05;;;;;;;0.90;36.28;100100.23;1786181;77;21134;-66
2021/01/19 08:10:40;;;;;;;16.40;10.50;;;;;;;0.90;36.29;100102.02;1771842;79;21296;-66
2021/01/19 08:13:16;;;;;;;14.60;9.48;;;;;;;0.89;36.32;100104.24;1796380;78;21121;-66
2021/01/19 08:15:47;;;;;;;15.23;9.60;;;;;;;0.89;36.36;100101.63;1793071;78;21104;-68
2021/01/19 08:18:17;;;;;;;16.55;10.60;;;;;;;0.94;36.34;100111.34;1796369;79;21146;-68
2021/01/19 08:20:47;;;;;;;16.50;10.15;;;;;;;0.94;36.33;100102.19;1794936;78;21679;-66
2021/01/19 08:23:17;;;;;;;14.83;9.65;;;;;;;1.02;36.27;100104.31;1805016;78;21429;-69
2021/01/19 08:25:44;;;;;;;13.93;9.40;;;;;;;1.04;36.30;100099.82;1806047;78;21089;-68
2021/01/19 08:28:13;;;;;;;14.30;10.53;;;;;;;1.08;36.22;100096.92;1795385;77;21141;-70
2021/01/19 08:30:42;;;;;;;17.37;10.80;;;;;;;1.12;36.22;100092.30;1798358;77;21187;-66
2021/01/19 08:33:11;;;;;;;14.50;9.38;;;;;;;1.18;36.17;100098.48;1799431;79;21189;-69
2021/01/19 08:35:40;;;;;;;15.90;9.85;;;;;;;1.20;36.22;100100.53;1762297;80;21189;-68
2021/01/19 08:38:08;;;;;;;13.08;9.10;;;;;;;1.26;36.16;100096.67;1797846;77;21190;-66
2021/01/19 08:40:36;;;;;;;13.20;9.33;;;;;;;1.30;36.18;100098.15;1793350;78;21254;-65
2021/01/19 08:43:05;;;;;;;15.90;10.00;;;;;;;1.36;36.11;100094.64;1799611;78;21181;-67
2021/01/19 08:45:38;;;;;;;14.90;10.05;;;;;;;1.41;36.09;100093.05;1800829;78;21222;-67
2021/01/19 08:48:06;;;;;;;14.40;9.18;;;;;;;1.51;36.01;100095.42;1789264;78;22287;-67
2021/01/19 08:50:41;;;;;;;16.32;10.72;;;;;;;1.55;36.01;100090.83;1760441;80;21190;-68
2021/01/19 08:53:14;;;;;;;15.93;11.05;;;;;;;1.63;35.92;100089.84;1792821;79;21123;-68
2021/01/19 08:55:45;;;;;;;14.20;9.65;;;;;;;1.68;35.93;100086.45;1784695;79;21207;-68
2021/01/19 08:58:19;;;;;;;14.35;9.85;;;;;;;1.77;35.85;100084.50;1807076;77;21174;-70
2021/01/19 09:00:47;;;;;;;15.28;10.45;;;;;;;1.82;35.79;100082.90;1785145;79;21369;-70
2021/01/19 09:03:16;;;;;;;16.55;10.03;;;;;;;1.88;35.73;100081.65;1797886;78;21110;-69
2021/01/19 09:05:45;;;;;;;16.25;10.50;;;;;;;1.94;35.69;100083.84;1803736;78;21135;-68
2021/01/19 09:08:17;;;;;;;13.18;9.35;;;;;;;2.02;35.64;100078.91;1794170;78;21700;-68
2021/01/19 09:10:45;;;;;;;18.05;10.65;;;;;;;2.16;35.87;100068.78;1783110;79;21610;-67
2021/01/19 09:13:12;;;;;;;16.55;11.12;;;;;;;2.16;35.87;100068.78;1785425;79;21327;-68
2021/01/19 09:15:41;;;;;;;15.30;10.48;;;;;;;2.23;35.68;100075.29;1804889;79;21398;-69
2021/01/19 09:18:11;;;;;;;13.98;9.83;;;;;;;2.34;35.63;100071.93;1787954;79;21157;-69
2021/01/19 09:20:40;;;;;;;16.57;10.63;;;;;;;2.52;35.59;100060.13;1784294;79;21617;-69
2021/01/19 09:23:15;;;;;;;15.18;10.32;;;;;;;2.64;35.64;100066.28;1780760;79;22002;-70
2021/01/19 09:25:47;;;;;;;14.83;10.50;;;;;;;2.64;35.64;100066.28;1792100;79;21432;-67
2021/01/19 09:28:15;;;;;;;16.62;11.38;;;;;;;2.78;35.49;100069.23;1785294;79;21950;-69
2021/01/19 09:30:42;;;;;;;17.07;10.82;;;;;;;2.90;35.44;100059.18;1781205;79;21183;-68
2021/01/19 09:33:12;;;;;;;14.43;10.45;;;;;;;3.01;35.43;100062.80;1784561;79;21639;-68
2021/01/19 09:35:41;;;;;;;15.00;10.05;;;;;;;3.10;35.39;100050.33;1785717;79;21174;-69
2021/01/19 09:38:14;;;;;;;16.27;10.95;;;;;;;3.26;35.33;100058.73;1791233;79;21439;-69
2021/01/19 09:40:41;;;;;;;15.45;11.15;;;;;;;3.37;35.27;100060.58;1791585;78;28901;-69
2021/01/19 09:43:14;;;;;;;14.70;10.00;;;;;;;3.46;35.20;100055.95;1793963;79;21610;-69
2021/01/19 09:45:41;;;;;;;17.95;11.53;;;;;;;3.54;35.10;100054.06;1788380;79;21137;-69
2021/01/19 09:48:12;;;;;;;16.02;10.95;;;;;;;3.60;35.04;100054.91;1787784;79;21153;-68
2021/01/19 09:50:40;;;;;;;15.60;11.25;;;;;;;3.66;34.86;100046.56;1792409;79;21243;-71
2021/01/19 09:53:09;;;;;;;13.93;9.90;;;;;;;3.71;34.88;100048.86;1782000;79;21178;-69
2021/01/19 09:55:37;;;;;;;14.40;10.43;;;;;;;3.78;34.79;100053.98;1773266;78;21168;-70
2021/01/19 09:58:05;;;;;;;16.85;10.78;;;;;;;3.81;34.72;100051.63;1767352;78;21259;-69
2021/01/19 10:00:39;;;;;;;15.53;10.53;;;;;;;3.84;34.70;100054.00;1802648;78;21210;-70
2021/01/19 10:03:13;;;;;;;16.48;10.45;;;;;;;3.86;34.57;100044.20;1810073;77;21373;-69
2021/01/19 10:05:41;;;;;;;14.05;9.50;;;;;;;3.86;34.53;100041.58;1808605;78;21630;-69
2021/01/19 10:08:09;;;;;;;13.58;10.15;;;;;;;3.86;34.50;100037.63;1804242;77;21607;-68
2021/01/19 10:10:43;;;;;;;16.15;11.33;;;;;;;3.86;34.66;100039.81;1804009;78;21810;-69
2021/01/19 10:13:10;;;;;;;14.60;10.95;;;;;;;3.89;34.47;100038.23;1814482;77;21155;-69
2021/01/19 10:15:40;;;;;;;17.52;11.50;;;;;;;3.90;34.44;100039.92;1805811;78;21351;-69
2021/01/19 10:18:08;;;;;;;14.07;10.43;;;;;;;3.94;34.41;100042.67;1786239;79;21882;-68
2021/01/19 10:20:37;;;;;;;15.40;10.82;;;;;;;4.00;34.37;100038.73;1814786;78;21160;-69
2021/01/19 10:23:05;;;;;;;17.30;11.45;;;;;;;4.06;34.35;100032.17;1780446;79;21177;-67
2021/01/19 10:25:34;;;;;;;14.90;11.05;;;;;;;4.12;34.38;100027.75;1784418;78;21157;-67
2021/01/19 10:28:04;;;;;;;16.85;11.78;;;;;;;4.21;34.39;100032.30;1783126;78;21370;-71
2021/01/19 10:30:34;;;;;;;17.67;11.43;;;;;;;4.32;34.39;100024.86;1803778;79;21607;-69
2021/01/19 10:33:02;;;;;;;16.62;10.60;;;;;;;4.42;34.38;100024.48;1797650;79;21106;-68
2021/01/19 10:35:35;;;;;;;15.98;10.85;;;;;;;4.55;34.37;100030.09;1797333;77;21145;-70
2021/01/19 10:38:07;;;;;;;14.45;10.08;;;;;;;4.63;34.32;100016.67;1798617;79;21225;-70
2021/01/19 10:40:36;;;;;;;13.75;10.43;;;;;;;4.75;34.33;100017.96;1793632;79;21669;-69
2021/01/19 10:43:10;;;;;;;15.28;10.50;;;;;;;4.86;34.29;100014.81;1799198;77;21137;-70
2021/01/19 10:45:39;;;;;;;15.08;10.98;;;;;;;5.00;34.29;100010.22;1789223;79;21154;-70
2021/01/19 10:48:17;;;;;;;15.88;10.95;;;;;;;5.12;34.29;100008.74;1794262;79;21196;-69
2021/01/19 10:50:46;;;;;;;14.90;10.08;;;;;;;5.25;34.30;100000.67;1802530;79;21146;-70
2021/01/19 10:53:13;;;;;;;14.40;10.20;;;;;;;5.39;34.30;100002.16;1790803;77;21394;-70
2021/01/19 10:55:40;;;;;;;16.82;10.60;;;;;;;5.52;34.30;99997.98;1806450;79;21158;-70
2021/01/19 10:58:07;;;;;;;15.95;11.60;;;;;;;5.65;34.32;100002.58;1787644;78;21105;-69
2021/01/19 11:00:35;;;;;;;13.30;10.38;;;;;;;5.77;34.42;99997.23;1795686;79;21902;-68
2021/01/19 11:03:02;;;;;;;14.25;10.15;;;;;;;5.88;34.55;99997.16;1794271;79;21160;-68
2021/01/19 11:05:30;;;;;;;14.30;10.00;;;;;;;5.97;34.60;99996.40;1813853;79;21371;-68
2021/01/19 11:07:57;;;;;;;12.75;9.58;;;;;;;6.09;34.53;99994.01;1808878;79;21992;-66
2021/01/19 11:10:26;;;;;;;12.82;9.65;;;;;;;6.21;34.53;99992.10;1791439;79;21599;-68
2021/01/19 11:12:54;;;;;;;16.02;10.25;;;;;;;6.35;34.57;99987.42;1802760;77;21190;-67
2021/01/19 11:15:22;;;;;;;12.78;9.28;;;;;;;6.46;34.60;99981.55;1797905;77;21182;-71
2021/01/19 11:17:51;;;;;;;14.87;9.58;;;;;;;6.59;34.41;99982.62;1786845;79;22386;-68
2021/01/19 11:20:20;;;;;;;12.63;8.95;;;;;;;6.76;34.21;99979.80;1807200;79;21172;-71
2021/01/19 11:22:48;;;;;;;15.00;10.85;;;;;;;7.04;34.03;99981.27;1785072;79;21146;-67
2021/01/19 11:25:16;;;;;;;13.55;10.53;;;;;;;7.37;33.82;99976.01;1790538;80;21122;-67
2021/01/19 11:27:43;;;;;;;12.55;9.78;;;;;;;7.74;33.61;99968.61;1790527;79;21704;-69
2021/01/19 11:30:13;;;;;;;12.35;9.68;;;;;;;8.14;33.30;99962.19;1791371;77;21623;-72
2021/01/19 11:32:41;;;;;;;12.10;9.78;;;;;;;8.56;32.99;99960.88;1788044;78;21224;-70
2021/01/19 11:35:10;;;;;;;15.00;10.65;;;;;;;8.96;32.63;99959.59;1797857;79;21527;-66
2021/01/19 11:37:37;;;;;;;14.28;10.72;;;;;;;9.33;32.22;99950.59;1787640;77;21186;-68
2021/01/19 11:40:06;;;;;;;12.80;9.58;;;;;;;9.68;31.89;99958.11;1797547;78;21137;-70
2021/01/19 11:42:35;;;;;;;13.43;10.15;;;;;;;9.97;31.53;99953.81;1808544;77;21512;-70
2021/01/19 11:45:06;;;;;;;12.73;9.90;;;;;;;10.19;31.17;99956.38;1796884;78;21611;-68